Pagrindinis puslapis
METAR-TAF:

METAR-TAF

Oro uostai :

Savanaketas, Laosas

platuma: 16-33-24N, ilguma: 104-45-34E, Aukštis: 155 m

Dabartinis oras

Ataskaita buvo paskelbta 50 minutes, ne 12:00 UTC
Vėjas 4 kt iš Šiaurės Rytų
Temperatūra 27°C
Drėgmė 51%
Slėgis 1018 hPa
Matomumas: 3000 m
Išsisklaidę debesys ne aukštis 2000 ft
Išsisklaidę debesys ne aukštis 10000 ft
rūkana

METAR: VLSK 191200Z 04004KT 3000 BR SCT020 SCT100 27/16 Q1018 NOSIC

Laikas: 19:50 (12:50 UTC)

Prognozė

Ataskaita buvo paskelbta 1 valandą ir 50 minutes, ne 11:00 UTC
Prognozė galioja nuo 19 metu 12 UTC su 20 metu 12 UTC
Vėjas 6 kt iš Pietų/Pietryčių
Matomumas: 7000 m
Mažai debesys ne aukštis 2000 ft
Mažai debesys ne aukštis 10000 ft

TAF: VLSK 191100Z 1912/2012 16006KT 7000 FEW020 FEW100

Orai ataskaitas ir orų prognozės (METAR, TAF).

turimą stotys yra geltonos ir raudonos taškus žemėlapyje.

Perkelti pele per norėdami pamatyti stoties vardą.

Tada spustelėkite, norėdami matyti oro stebėjimo ir prognozės.

Norėdami pakeisti žemėlapį: spustelėkite ant žalios mygtukų su juodo kryžiaus žemyn,; žalią mygtuką su brūkšneliu, jei norite nutolinti; arba žalių rodyklių gretimoms žemėlapius.


METAR-TAF: